Time;durP1;ratioP1;P1;durP2;ratioP2;P2;SDS_P1;SDS_P2;PMS_P1;PMS_P2;Temp;Humidity;BMP_temperature;BMP_pressure;BME280_temperature;BME280_humidity;BME280_pressure;Samples;Min_cycle;Max_cycle;Signal;HPM_P1;HPM_P2
2023/04/07 00:01:07;;;;;;;10.43;9.20;;;;;;;;;;5071608;28;20191;-57
2023/04/07 00:03:33;;;;;;;11.53;9.13;;;;;;;;;;5071595;28;20196;-56
2023/04/07 00:05:59;;;;;;;11.83;8.83;;;;;;;;;;5071868;28;20662;-58
2023/04/07 00:08:25;;;;;;;11.87;9.20;;;;;;;;;;5069877;28;20200;-55
2023/04/07 00:10:51;;;;;;;13.93;8.63;;;;;;;;;;5071619;28;21003;-59
2023/04/07 00:13:18;;;;;;;10.53;8.27;;;;;;;;;;5069675;28;20215;-57
2023/04/07 00:15:44;;;;;;;10.10;7.97;;;;;;;;;;5071404;28;20235;-60
2023/04/07 00:18:10;;;;;;;9.33;7.70;;;;;;;;;;5071624;28;20219;-58
2023/04/07 00:20:36;;;;;;;11.67;8.37;;;;;;;;;;5071396;28;20199;-58
2023/04/07 00:23:02;;;;;;;12.27;9.27;;;;;;;;;;5071643;28;20278;-58
2023/04/07 00:25:28;;;;;;;9.50;7.87;;;;;;;;;;5071571;28;20721;-58
2023/04/07 00:27:54;;;;;;;9.97;8.03;;;;;;;;;;5071471;28;20203;-58
2023/04/07 00:30:21;;;;;;;10.40;8.57;;;;;;;;;;5071432;28;20196;-58
2023/04/07 00:32:47;;;;;;;11.67;8.73;;;;;;;;;;5074180;28;20834;-58
2023/04/07 00:35:13;;;;;;;9.43;8.07;;;;;;;;;;5075089;28;20897;-58
2023/04/07 00:37:40;;;;;;;8.83;7.93;;;;;;;;;;5075075;28;20476;-58
2023/04/07 00:40:06;;;;;;;11.20;8.07;;;;;;;;;;5075186;28;20199;-58
2023/04/07 00:42:33;;;;;;;9.80;8.00;;;;;;;;;;5075072;28;20471;-58
2023/04/07 00:44:59;;;;;;;10.53;8.33;;;;;;;;;;5075223;28;20430;-58
2023/04/07 00:47:27;;;;;;;10.33;8.10;;;;;;;;;;5074959;28;20445;-57
2023/04/07 00:49:53;;;;;;;11.80;8.33;;;;;;;;;;5074876;28;20448;-58
2023/04/07 00:52:26;;;;;;;8.90;8.00;;;;;;;;;;5074882;28;20517;-58
2023/04/07 00:54:53;;;;;;;12.07;8.97;;;;;;;;;;5074875;28;20481;-58
2023/04/07 00:57:19;;;;;;;10.40;8.33;;;;;;;;;;5074707;28;20211;-58
2023/04/07 00:59:45;;;;;;;10.93;8.63;;;;;;;;;;5074831;28;20261;-58
2023/04/07 01:02:15;;;;;;;10.27;8.63;;;;;;;;;;5074798;28;20235;-58
2023/04/07 01:04:44;;;;;;;10.83;8.77;;;;;;;;;;5074637;28;20199;-57
2023/04/07 01:07:15;;;;;;;12.77;8.53;;;;;;;;;;5074694;28;20440;-58
2023/04/07 01:09:46;;;;;;;10.07;8.30;;;;;;;;;;5074583;28;20492;-58
2023/04/07 01:12:15;;;;;;;8.83;7.90;;;;;;;;;;5074717;28;20434;-58
2023/04/07 01:14:45;;;;;;;11.83;9.53;;;;;;;;;;5074356;28;20588;-58
2023/04/07 01:17:12;;;;;;;9.77;7.50;;;;;;;;;;5074553;28;20795;-57
2023/04/07 01:19:40;;;;;;;11.70;8.57;;;;;;;;;;5074352;28;20438;-58
2023/04/07 01:22:11;;;;;;;12.13;8.50;;;;;;;;;;5074289;28;20669;-57
2023/04/07 01:24:45;;;;;;;9.77;7.57;;;;;;;;;;5074323;28;20438;-58
2023/04/07 01:27:16;;;;;;;9.57;8.30;;;;;;;;;;5074444;28;20433;-58
2023/04/07 01:29:47;;;;;;;9.80;8.37;;;;;;;;;;5074267;28;20525;-58
2023/04/07 01:32:14;;;;;;;11.27;9.47;;;;;;;;;;5074139;28;20481;-57
2023/04/07 01:34:40;;;;;;;17.07;10.90;;;;;;;;;;5073907;28;20473;-57
2023/04/07 01:37:07;;;;;;;10.93;9.63;;;;;;;;;;5074178;28;20429;-58
2023/04/07 01:39:33;;;;;;;11.67;8.77;;;;;;;;;;5073917;28;20454;-58
2023/04/07 01:42:01;;;;;;;9.70;8.30;;;;;;;;;;5073687;28;20434;-57
2023/04/07 01:44:27;;;;;;;9.00;8.07;;;;;;;;;;5073978;28;20434;-57
2023/04/07 01:46:56;;;;;;;10.37;8.13;;;;;;;;;;5073874;28;20935;-57
2023/04/07 01:49:23;;;;;;;9.87;8.27;;;;;;;;;;5073707;28;20442;-58
2023/04/07 01:51:49;;;;;;;11.07;8.57;;;;;;;;;;5073745;28;20438;-58
2023/04/07 01:54:16;;;;;;;9.37;8.33;;;;;;;;;;5073784;28;20859;-57
2023/04/07 01:56:43;;;;;;;11.37;8.40;;;;;;;;;;5073619;28;20485;-57
2023/04/07 01:59:09;;;;;;;9.07;8.03;;;;;;;;;;5073583;28;20468;-57
2023/04/07 02:01:35;;;;;;;9.73;8.40;;;;;;;;;;5073286;28;20440;-58
2023/04/07 02:04:06;;;;;;;12.23;7.73;;;;;;;;;;5073492;28;20795;-57
2023/04/07 02:06:34;;;;;;;10.93;8.00;;;;;;;;;;5073443;28;20438;-57
2023/04/07 02:09:03;;;;;;;11.07;8.60;;;;;;;;;;5073615;28;20430;-57
2023/04/07 02:11:32;;;;;;;9.33;8.20;;;;;;;;;;5073252;28;20469;-57
2023/04/07 02:14:00;;;;;;;9.23;8.10;;;;;;;;;;5073469;28;20520;-57
2023/04/07 02:16:26;;;;;;;9.20;8.30;;;;;;;;;;5073291;28;20473;-57
2023/04/07 02:18:53;;;;;;;9.33;8.23;;;;;;;;;;5073202;28;20433;-58
2023/04/07 02:21:20;;;;;;;9.30;8.27;;;;;;;;;;5073078;28;20450;-57
2023/04/07 02:23:46;;;;;;;10.00;8.40;;;;;;;;;;5073081;28;20845;-57
2023/04/07 02:26:12;;;;;;;10.60;8.10;;;;;;;;;;5073160;28;20438;-57
2023/04/07 02:28:38;;;;;;;9.33;7.87;;;;;;;;;;5073002;28;20217;-57
2023/04/07 02:31:05;;;;;;;10.80;8.10;;;;;;;;;;5072957;28;20438;-57
2023/04/07 02:33:30;;;;;;;9.90;8.10;;;;;;;;;;5073117;28;20458;-57
2023/04/07 02:35:56;;;;;;;10.63;8.03;;;;;;;;;;5072861;28;20509;-57
2023/04/07 02:38:24;;;;;;;11.37;8.63;;;;;;;;;;5072923;28;20206;-57
2023/04/07 02:40:50;;;;;;;8.90;8.00;;;;;;;;;;5073004;28;20215;-57
2023/04/07 02:43:18;;;;;;;9.50;7.90;;;;;;;;;;5073037;28;20430;-60
2023/04/07 02:45:44;;;;;;;8.93;8.03;;;;;;;;;;5072832;28;20434;-57
2023/04/07 02:48:10;;;;;;;9.67;8.00;;;;;;;;;;5072863;28;20483;-57
2023/04/07 02:50:36;;;;;;;9.43;8.17;;;;;;;;;;5072755;28;20434;-57
2023/04/07 02:53:02;;;;;;;11.13;8.80;;;;;;;;;;5073075;28;20257;-57
2023/04/07 02:55:29;;;;;;;9.30;8.40;;;;;;;;;;5071921;28;20466;-57
2023/04/07 02:57:55;;;;;;;11.13;8.27;;;;;;;;;;5072764;28;20204;-57
2023/04/07 03:00:21;;;;;;;8.73;7.83;;;;;;;;;;5072581;28;20485;-57
2023/04/07 03:02:47;;;;;;;8.80;7.90;;;;;;;;;;5072511;28;20196;-57
2023/04/07 03:05:13;;;;;;;11.27;9.13;;;;;;;;;;5072448;28;20434;-57
2023/04/07 03:07:39;;;;;;;9.60;8.50;;;;;;;;;;5072376;28;20233;-57
2023/04/07 03:10:05;;;;;;;9.50;8.47;;;;;;;;;;5072488;28;20802;-57
2023/04/07 03:12:33;;;;;;;10.40;8.13;;;;;;;;;;5072320;28;20625;-58
2023/04/07 03:14:59;;;;;;;9.23;7.83;;;;;;;;;;5072497;28;20564;-57
2023/04/07 03:17:25;;;;;;;10.27;8.63;;;;;;;;;;5072340;28;20442;-57
2023/04/07 03:19:51;;;;;;;11.17;9.20;;;;;;;;;;5072310;28;20522;-55
2023/04/07 03:22:17;;;;;;;10.60;8.87;;;;;;;;;;5072282;28;20199;-57
2023/04/07 03:24:43;;;;;;;10.10;8.87;;;;;;;;;;5072256;28;20442;-58
2023/04/07 03:27:09;;;;;;;11.77;9.00;;;;;;;;;;5072298;28;20509;-57
2023/04/07 03:29:36;;;;;;;12.97;9.57;;;;;;;;;;5072242;28;20560;-55
2023/04/07 03:32:02;;;;;;;10.40;8.97;;;;;;;;;;5071969;28;20239;-58
2023/04/07 03:34:28;;;;;;;9.27;8.27;;;;;;;;;;5072008;28;20444;-58
2023/04/07 03:36:54;;;;;;;9.80;8.67;;;;;;;;;;5072172;28;20268;-57
2023/04/07 03:39:20;;;;;;;10.27;8.50;;;;;;;;;;5071851;28;20234;-58
2023/04/07 03:41:46;;;;;;;8.83;7.93;;;;;;;;;;5072049;28;20570;-57
2023/04/07 03:44:12;;;;;;;10.67;8.93;;;;;;;;;;5072148;28;20434;-56
2023/04/07 03:46:39;;;;;;;13.20;11.27;;;;;;;;;;5071992;28;20257;-56
2023/04/07 03:49:06;;;;;;;14.53;12.37;;;;;;;;;;5071483;28;20233;-56
2023/04/07 03:51:33;;;;;;;13.83;11.70;;;;;;;;;;5071933;28;20426;-56
2023/04/07 03:53:59;;;;;;;12.03;9.80;;;;;;;;;;5072039;28;20445;-56
2023/04/07 03:56:25;;;;;;;12.00;9.70;;;;;;;;;;5071530;28;20481;-56
2023/04/07 03:58:51;;;;;;;10.33;9.33;;;;;;;;;;5071737;28;20859;-56
2023/04/07 04:01:17;;;;;;;9.83;8.83;;;;;;;;;;5071932;28;20778;-56
2023/04/07 04:03:44;;;;;;;9.50;8.43;;;;;;;;;;5071783;28;20851;-56
2023/04/07 04:06:11;;;;;;;10.43;8.40;;;;;;;;;;5073906;28;20811;-56
2023/04/07 04:08:36;;;;;;;9.57;8.57;;;;;;;;;;5075829;28;20438;-56
2023/04/07 04:11:02;;;;;;;8.90;8.00;;;;;;;;;;5075822;28;20528;-56
2023/04/07 04:13:29;;;;;;;13.60;8.73;;;;;;;;;;5075747;28;20207;-57
2023/04/07 04:15:55;;;;;;;9.57;8.60;;;;;;;;;;5075689;28;20230;-57
2023/04/07 04:18:21;;;;;;;12.17;8.83;;;;;;;;;;5075656;28;20516;-57
2023/04/07 04:20:49;;;;;;;10.03;8.50;;;;;;;;;;5075451;28;20533;-56
2023/04/07 04:23:15;;;;;;;10.03;8.50;;;;;;;;;;5074392;28;20624;-56
2023/04/07 04:25:41;;;;;;;10.43;9.20;;;;;;;;;;5075489;28;20433;-56
2023/04/07 04:28:07;;;;;;;10.30;8.73;;;;;;;;;;5075451;28;20871;-57
2023/04/07 04:30:33;;;;;;;9.67;8.67;;;;;;;;;;5075301;28;20434;-56
2023/04/07 04:32:59;;;;;;;10.37;9.20;;;;;;;;;;5075370;28;20239;-57
2023/04/07 04:35:26;;;;;;;9.63;8.63;;;;;;;;;;5075134;28;20219;-56
2023/04/07 04:37:54;;;;;;;10.50;9.13;;;;;;;;;;5075170;28;20457;-56
2023/04/07 04:40:20;;;;;;;11.23;8.87;;;;;;;;;;5075167;28;20836;-56
2023/04/07 04:42:46;;;;;;;12.20;9.83;;;;;;;;;;5075177;28;20554;-56
2023/04/07 04:45:12;;;;;;;9.73;8.73;;;;;;;;;;5075243;28;20995;-57
2023/04/07 04:47:39;;;;;;;11.10;9.23;;;;;;;;;;5075010;28;20202;-56
2023/04/07 04:50:05;;;;;;;11.00;9.33;;;;;;;;;;5075327;28;20199;-56
2023/04/07 04:52:31;;;;;;;11.10;9.90;;;;;;;;;;5075046;28;20943;-56
2023/04/07 04:54:58;;;;;;;10.67;9.57;;;;;;;;;;5075042;28;20492;-57
2023/04/07 04:57:24;;;;;;;11.17;9.73;;;;;;;;;;5074560;28;20536;-56
2023/04/07 04:59:50;;;;;;;11.63;10.43;;;;;;;;;;5075042;28;20508;-57
2023/04/07 05:02:16;;;;;;;11.83;10.13;;;;;;;;;;5074996;28;20892;-56
2023/04/07 05:04:42;;;;;;;10.67;9.57;;;;;;;;;;5074835;28;20278;-57
2023/04/07 05:07:08;;;;;;;11.50;10.30;;;;;;;;;;5074795;28;20222;-56
2023/04/07 05:09:34;;;;;;;12.77;10.07;;;;;;;;;;5074782;28;20434;-57
2023/04/07 05:12:02;;;;;;;12.50;10.87;;;;;;;;;;5075121;28;20203;-57
2023/04/07 05:14:28;;;;;;;11.50;9.70;;;;;;;;;;5074792;28;20433;-56
2023/04/07 05:16:54;;;;;;;11.17;9.90;;;;;;;;;;5073805;28;20473;-56
2023/04/07 05:19:20;;;;;;;12.37;10.20;;;;;;;;;;5074502;28;20465;-57
2023/04/07 05:21:46;;;;;;;11.13;9.87;;;;;;;;;;5074589;28;20465;-57
2023/04/07 05:24:12;;;;;;;11.00;9.77;;;;;;;;;;5074622;28;20693;-56
2023/04/07 05:26:38;;;;;;;11.87;10.43;;;;;;;;;;5074377;28;20191;-57
2023/04/07 05:29:05;;;;;;;10.67;9.47;;;;;;;;;;5074422;28;20654;-57
2023/04/07 05:31:32;;;;;;;12.53;10.37;;;;;;;;;;5074298;28;20592;-57
2023/04/07 05:33:58;;;;;;;11.47;10.27;;;;;;;;;;5074402;28;20517;-56
2023/04/07 05:36:24;;;;;;;10.87;9.20;;;;;;;;;;5074125;28;20878;-56
2023/04/07 05:38:50;;;;;;;11.27;9.80;;;;;;;;;;5074313;28;20476;-56
2023/04/07 05:41:16;;;;;;;12.33;10.37;;;;;;;;;;5074152;28;20979;-55
2023/04/07 05:43:42;;;;;;;11.87;10.00;;;;;;;;;;5074069;28;20465;-57
2023/04/07 05:46:10;;;;;;;11.67;9.83;;;;;;;;;;5074094;28;20219;-56
2023/04/07 05:48:36;;;;;;;10.90;9.80;;;;;;;;;;5073850;28;20450;-56
2023/04/07 05:51:02;;;;;;;10.97;9.87;;;;;;;;;;5074043;28;20526;-57
2023/04/07 05:53:28;;;;;;;11.20;9.73;;;;;;;;;;5073859;28;20924;-57
2023/04/07 05:55:54;;;;;;;11.23;9.53;;;;;;;;;;5073746;28;20492;-56
2023/04/07 05:58:20;;;;;;;10.90;9.50;;;;;;;;;;5073803;28;20195;-57
2023/04/07 06:00:46;;;;;;;14.63;9.60;;;;;;;;;;5073805;28;20195;-57
2023/04/07 06:03:13;;;;;;;10.83;9.70;;;;;;;;;;5073726;28;20441;-57
2023/04/07 06:05:42;;;;;;;11.33;9.37;;;;;;;;;;5073583;28;20200;-57
2023/04/07 06:08:08;;;;;;;13.73;10.57;;;;;;;;;;5073647;28;20433;-56
2023/04/07 06:10:34;;;;;;;13.57;9.67;;;;;;;;;;5073459;28;20434;-56
2023/04/07 06:13:00;;;;;;;10.00;8.97;;;;;;;;;;5073606;28;20491;-57
2023/04/07 06:15:26;;;;;;;10.47;9.33;;;;;;;;;;5073193;28;20243;-57
2023/04/07 06:17:52;;;;;;;11.67;9.43;;;;;;;;;;5071303;28;20465;-61
2023/04/07 06:20:21;;;;;;;10.57;8.70;;;;;;;;;;5073357;28;20195;-57
2023/04/07 06:22:47;;;;;;;10.80;9.53;;;;;;;;;;5073251;28;20204;-57
2023/04/07 06:25:13;;;;;;;12.23;9.43;;;;;;;;;;5073298;28;20437;-57
2023/04/07 06:27:39;;;;;;;12.70;9.10;;;;;;;;;;5073184;28;20740;-56
2023/04/07 06:30:06;;;;;;;9.90;8.67;;;;;;;;;;5073113;28;20517;-58
2023/04/07 06:32:32;;;;;;;10.87;9.13;;;;;;;;;;5072945;28;20227;-57
2023/04/07 06:34:58;;;;;;;11.33;9.33;;;;;;;;;;5073026;28;20556;-57
2023/04/07 06:37:25;;;;;;;10.80;9.30;;;;;;;;;;5073139;28;20204;-58
2023/04/07 06:39:51;;;;;;;10.90;9.03;;;;;;;;;;5072913;28;20753;-58
2023/04/07 06:42:17;;;;;;;12.30;9.10;;;;;;;;;;5073022;28;20469;-60
2023/04/07 06:44:43;;;;;;;10.67;8.83;;;;;;;;;;5072922;28;20473;-58
2023/04/07 06:47:10;;;;;;;11.00;8.43;;;;;;;;;;5072814;28;20200;-57
2023/04/07 06:49:36;;;;;;;9.43;8.50;;;;;;;;;;5072648;28;20199;-58
2023/04/07 06:52:02;;;;;;;10.73;8.57;;;;;;;;;;5072781;28;20457;-58
2023/04/07 06:54:29;;;;;;;9.83;7.57;;;;;;;;;;5072656;28;20469;-57
2023/04/07 06:56:56;;;;;;;8.07;7.27;;;;;;;;;;5072535;28;20314;-56
2023/04/07 06:59:22;;;;;;;9.00;8.10;;;;;;;;;;5070474;28;20808;-59
2023/04/07 07:01:48;;;;;;;12.10;8.57;;;;;;;;;;5072778;28;20434;-57
2023/04/07 07:04:14;;;;;;;9.40;8.23;;;;;;;;;;5072664;28;20245;-56
2023/04/07 07:06:40;;;;;;;9.10;8.20;;;;;;;;;;5072351;28;20657;-57
2023/04/07 07:09:06;;;;;;;10.17;8.50;;;;;;;;;;5072622;28;20206;-57
2023/04/07 07:11:33;;;;;;;9.57;8.53;;;;;;;;;;5072429;28;20199;-57
2023/04/07 07:13:59;;;;;;;9.53;8.53;;;;;;;;;;5072495;28;20195;-58
2023/04/07 07:16:25;;;;;;;9.30;8.37;;;;;;;;;;5072348;28;20724;-58
2023/04/07 07:18:51;;;;;;;11.33;8.40;;;;;;;;;;5072337;28;20202;-57
2023/04/07 07:21:18;;;;;;;10.37;9.27;;;;;;;;;;5072483;28;20204;-57
2023/04/07 07:23:44;;;;;;;9.90;8.90;;;;;;;;;;5072287;28;20548;-57
2023/04/07 07:26:10;;;;;;;9.17;8.27;;;;;;;;;;5072331;28;20244;-58
2023/04/07 07:28:37;;;;;;;9.83;8.83;;;;;;;;;;5072288;28;20203;-56
2023/04/07 07:31:09;;;;;;;10.77;9.00;;;;;;;;;;5072206;28;20225;-54
2023/04/07 07:33:35;;;;;;;16.47;12.90;;;;;;;;;;5072190;28;20313;-56
2023/04/07 07:36:01;;;;;;;9.60;8.63;;;;;;;;;;5072314;28;20306;-55
2023/04/07 07:38:27;;;;;;;10.33;9.23;;;;;;;;;;5072217;28;20235;-56
2023/04/07 07:40:53;;;;;;;9.70;8.80;;;;;;;;;;5071562;28;20283;-55
2023/04/07 07:43:19;;;;;;;10.23;8.23;;;;;;;;;;5072131;28;20191;-55
2023/04/07 07:45:46;;;;;;;10.60;8.60;;;;;;;;;;5071957;28;20237;-54
2023/04/07 07:48:12;;;;;;;9.67;8.30;;;;;;;;;;5071980;28;20203;-55
2023/04/07 07:50:38;;;;;;;10.27;9.27;;;;;;;;;;5068289;28;20195;-56
2023/04/07 07:53:06;;;;;;;8.67;7.77;;;;;;;;;;5071883;28;20229;-54
2023/04/07 07:55:32;;;;;;;9.77;8.30;;;;;;;;;;5071509;28;20690;-56
2023/04/07 07:57:58;;;;;;;9.37;8.37;;;;;;;;;;5072026;28;20206;-55
2023/04/07 08:00:24;;;;;;;9.50;8.47;;;;;;;;;;5071732;28;20196;-55
2023/04/07 08:02:52;;;;;;;8.53;7.63;;;;;;;;;;5071919;28;20192;-55
2023/04/07 08:05:18;;;;;;;9.43;8.20;;;;;;;;;;5071755;28;20211;-55
2023/04/07 08:07:45;;;;;;;9.03;8.13;;;;;;;;;;5071163;28;20191;-55
2023/04/07 08:10:11;;;;;;;9.07;7.60;;;;;;;;;;5071601;28;20237;-54
2023/04/07 08:12:38;;;;;;;9.27;8.23;;;;;;;;;;5071438;28;20199;-55
2023/04/07 08:15:06;;;;;;;9.13;8.23;;;;;;;;;;5071547;28;20670;-55
2023/04/07 08:17:32;;;;;;;8.30;7.50;;;;;;;;;;5071575;28;20203;-57
2023/04/07 08:20:00;;;;;;;9.40;7.50;;;;;;;;;;5071430;28;20196;-56
2023/04/07 08:22:26;;;;;;;9.63;8.57;;;;;;;;;;5071469;28;20688;-54
2023/04/07 08:24:52;;;;;;;10.30;7.73;;;;;;;;;;5071392;28;20195;-56
2023/04/07 08:27:19;;;;;;;9.27;8.13;;;;;;;;;;5071427;28;20197;-54
2023/04/07 08:29:45;;;;;;;10.17;8.30;;;;;;;;;;5071307;28;20203;-54
2023/04/07 08:32:11;;;;;;;8.93;8.03;;;;;;;;;;5071294;28;20231;-55
2023/04/07 08:34:37;;;;;;;9.57;8.40;;;;;;;;;;5071141;28;20295;-55
2023/04/07 08:37:05;;;;;;;8.60;7.80;;;;;;;;;;5071442;28;20223;-55
2023/04/07 08:39:31;;;;;;;8.80;7.10;;;;;;;;;;5071392;28;20598;-55
2023/04/07 08:41:57;;;;;;;8.60;7.67;;;;;;;;;;5071399;28;20196;-55
2023/04/07 08:44:26;;;;;;;9.60;7.77;;;;;;;;;;5071098;28;20202;-54
2023/04/07 08:46:54;;;;;;;7.80;6.83;;;;;;;;;;5071104;28;20487;-54
2023/04/07 08:49:21;;;;;;;8.40;7.50;;;;;;;;;;5070924;28;20661;-55
2023/04/07 08:51:47;;;;;;;8.20;7.40;;;;;;;;;;5071050;28;20601;-55
2023/04/07 08:54:17;;;;;;;7.23;6.43;;;;;;;;;;5074547;28;20874;-56
2023/04/07 08:56:43;;;;;;;8.03;7.10;;;;;;;;;;5074391;28;21048;-55
2023/04/07 08:59:10;;;;;;;12.70;9.07;;;;;;;;;;5074613;28;20191;-56
2023/04/07 09:01:36;;;;;;;9.07;6.60;;;;;;;;;;5074949;28;20282;-56
2023/04/07 09:04:03;;;;;;;10.53;7.20;;;;;;;;;;5074980;28;20195;-55
2023/04/07 09:06:30;;;;;;;8.67;6.67;;;;;;;;;;5074907;28;20195;-55
2023/04/07 09:08:56;;;;;;;7.37;6.67;;;;;;;;;;5075026;28;20253;-56
2023/04/07 09:11:26;;;;;;;9.07;6.53;;;;;;;;;;5074815;28;20191;-56
2023/04/07 09:13:52;;;;;;;8.30;7.00;;;;;;;;;;5074517;28;20231;-55
2023/04/07 09:16:18;;;;;;;7.37;6.67;;;;;;;;;;5074512;28;20258;-54
2023/04/07 09:18:44;;;;;;;6.40;5.80;;;;;;;;;;5074570;28;20207;-54
2023/04/07 09:21:10;;;;;;;7.67;6.43;;;;;;;;;;5073343;28;20196;-55
2023/04/07 09:23:37;;;;;;;7.37;6.07;;;;;;;;;;5074392;28;20290;-54
2023/04/07 09:26:21;;;;;;;8.27;6.80;;;;;;;;;;5074435;28;20219;-56
2023/04/07 09:28:49;;;;;;;9.93;7.03;;;;;;;;;;5074452;28;20286;-55
2023/04/07 09:31:15;;;;;;;7.00;6.20;;;;;;;;;;5074484;28;20226;-55
2023/04/07 09:33:42;;;;;;;9.27;6.67;;;;;;;;;;5074287;28;20207;-55
2023/04/07 09:36:09;;;;;;;10.63;6.70;;;;;;;;;;5074369;28;20219;-56
2023/04/07 09:38:35;;;;;;;7.73;6.43;;;;;;;;;;5074275;28;20210;-55
2023/04/07 09:41:06;;;;;;;6.43;5.83;;;;;;;;;;5074503;28;20195;-55
2023/04/07 09:43:33;;;;;;;7.17;6.47;;;;;;;;;;5073960;28;20206;-56
2023/04/07 09:46:07;;;;;;;11.87;6.80;;;;;;;;;;5074260;28;20203;-56
2023/04/07 09:48:33;;;;;;;7.13;5.83;;;;;;;;;;5074062;28;20207;-56
2023/04/07 09:51:05;;;;;;;7.70;5.87;;;;;;;;;;5074013;28;20234;-55
2023/04/07 09:53:40;;;;;;;7.07;6.37;;;;;;;;;;5074055;28;20218;-56
2023/04/07 09:56:06;;;;;;;9.70;6.50;;;;;;;;;;5073850;28;20715;-56
2023/04/07 09:58:32;;;;;;;6.70;6.00;;;;;;;;;;5073872;28;20203;-55
2023/04/07 10:01:00;;;;;;;6.63;6.03;;;;;;;;;;5074010;28;20192;-56
2023/04/07 10:03:27;;;;;;;12.20;7.20;;;;;;;;;;5073346;28;20756;-56
2023/04/07 10:05:53;;;;;;;8.93;6.67;;;;;;;;;;5073570;28;20191;-56
2023/04/07 10:08:20;;;;;;;9.50;6.53;;;;;;;;;;5073580;28;20658;-56
2023/04/07 10:10:46;;;;;;;7.00;6.30;;;;;;;;;;5073434;28;20284;-54
2023/04/07 10:13:12;;;;;;;7.83;7.03;;;;;;;;;;5073508;28;20253;-56
2023/04/07 10:15:39;;;;;;;7.97;6.33;;;;;;;;;;5073150;28;20215;-55
2023/04/07 10:18:06;;;;;;;7.63;6.73;;;;;;;;;;5073340;28;20208;-54
2023/04/07 10:20:34;;;;;;;7.83;6.70;;;;;;;;;;5073339;28;20195;-55
2023/04/07 10:23:03;;;;;;;9.10;6.67;;;;;;;;;;5073371;28;20257;-55
2023/04/07 10:25:29;;;;;;;7.60;6.63;;;;;;;;;;5071281;28;20269;-55
2023/04/07 10:27:58;;;;;;;8.33;6.70;;;;;;;;;;5072927;28;20297;-55
2023/04/07 10:30:25;;;;;;;7.37;6.33;;;;;;;;;;5072368;28;20658;-54
2023/04/07 10:32:52;;;;;;;6.87;6.10;;;;;;;;;;5072325;28;20231;-55
2023/04/07 10:35:19;;;;;;;12.40;6.57;;;;;;;;;;5072521;28;20207;-57
2023/04/07 10:38:10;;;;;;;7.07;6.37;;;;;;;;;;5072575;28;20215;-56
2023/04/07 10:40:37;;;;;;;7.03;6.20;;;;;;;;;;5057240;28;20215;-55
2023/04/07 10:43:05;;;;;;;8.30;6.90;;;;;;;;;;5072473;28;20203;-55
2023/04/07 10:45:51;;;;;;;7.97;7.00;;;;;;;;;;5072555;28;20205;-56
2023/04/07 10:48:17;;;;;;;9.17;7.37;;;;;;;;;;5072515;28;20188;-57
2023/04/07 10:50:44;;;;;;;8.17;6.77;;;;;;;;;;5072439;28;20676;-57
2023/04/07 10:53:11;;;;;;;6.83;6.23;;;;;;;;;;5067747;28;20211;-56
2023/04/07 10:55:39;;;;;;;7.27;6.20;;;;;;;;;;5069245;28;21062;-57
2023/04/07 10:58:21;;;;;;;7.33;6.57;;;;;;;;;;5072241;28;20278;-56
2023/04/07 11:01:06;;;;;;;7.70;6.33;;;;;;;;;;5072079;28;20286;-55
2023/04/07 11:03:33;;;;;;;8.93;7.03;;;;;;;;;;5068330;28;20191;-56
2023/04/07 11:06:02;;;;;;;8.70;7.30;;;;;;;;;;5072223;28;20236;-57
2023/04/07 11:08:32;;;;;;;8.20;6.57;;;;;;;;;;5072025;28;20197;-56
2023/04/07 11:10:59;;;;;;;9.07;7.13;;;;;;;;;;5071941;28;20200;-56
2023/04/07 11:13:26;;;;;;;10.73;7.13;;;;;;;;;;5071998;28;20207;-57
2023/04/07 11:15:52;;;;;;;7.37;6.63;;;;;;;;;;5071314;28;20850;-57
2023/04/07 11:18:19;;;;;;;8.60;7.23;;;;;;;;;;5071829;28;20590;-54
2023/04/07 11:20:47;;;;;;;7.17;6.30;;;;;;;;;;5071845;28;20254;-55
2023/04/07 11:23:13;;;;;;;7.17;6.47;;;;;;;;;;5071809;28;20733;-55
2023/04/07 11:25:40;;;;;;;8.00;6.50;;;;;;;;;;5071828;28;20246;-55
2023/04/07 11:28:09;;;;;;;8.27;6.83;;;;;;;;;;5071905;28;20369;-55
2023/04/07 11:30:36;;;;;;;7.33;6.57;;;;;;;;;;5071746;28;20200;-55
2023/04/07 11:33:02;;;;;;;9.00;6.30;;;;;;;;;;5071715;28;20241;-55
2023/04/07 11:35:30;;;;;;;7.10;6.40;;;;;;;;;;5071520;28;20220;-55
2023/04/07 11:37:57;;;;;;;8.00;7.20;;;;;;;;;;5071789;28;20198;-56
2023/04/07 11:40:33;;;;;;;8.17;7.13;;;;;;;;;;5071895;28;20224;-55
2023/04/07 11:43:00;;;;;;;7.33;6.63;;;;;;;;;;5071894;28;20195;-53
2023/04/07 11:45:28;;;;;;;7.87;6.70;;;;;;;;;;5071903;28;20203;-54
2023/04/07 11:47:54;;;;;;;8.33;6.60;;;;;;;;;;5072080;28;20203;-55
2023/04/07 11:50:35;;;;;;;7.00;6.30;;;;;;;;;;5072194;28;20203;-53
2023/04/07 11:53:01;;;;;;;7.70;6.30;;;;;;;;;;5072035;28;20199;-56
2023/04/07 11:55:28;;;;;;;9.03;7.13;;;;;;;;;;5071867;28;20607;-54
2023/04/07 11:57:54;;;;;;;8.70;6.90;;;;;;;;;;5071877;28;20236;-54
2023/04/07 12:00:20;;;;;;;8.90;8.00;;;;;;;;;;5067329;28;20191;-53
2023/04/07 12:02:48;;;;;;;7.20;6.13;;;;;;;;;;5071615;28;20196;-54
2023/04/07 12:05:14;;;;;;;8.03;6.30;;;;;;;;;;5071830;28;20196;-53
2023/04/07 12:07:40;;;;;;;7.37;6.20;;;;;;;;;;5071573;28;20291;-54
2023/04/07 12:10:19;;;;;;;8.37;6.40;;;;;;;;;;5071805;28;20195;-54
2023/04/07 12:12:46;;;;;;;7.93;6.50;;;;;;;;;;5071605;28;20679;-54
2023/04/07 12:15:12;;;;;;;7.40;6.53;;;;;;;;;;5071749;28;20185;-54
2023/04/07 12:17:38;;;;;;;7.97;6.70;;;;;;;;;;5071447;28;20257;-53
2023/04/07 12:20:06;;;;;;;9.30;6.77;;;;;;;;;;5071704;28;20257;-54
2023/04/07 12:22:32;;;;;;;7.83;6.50;;;;;;;;;;5071561;28;20200;-54
2023/04/07 12:24:58;;;;;;;8.23;6.87;;;;;;;;;;5071671;28;20222;-55
2023/04/07 12:27:24;;;;;;;8.40;7.10;;;;;;;;;;5073836;28;20203;-54
2023/04/07 12:29:50;;;;;;;7.33;6.63;;;;;;;;;;5075196;28;20198;-54
2023/04/07 12:32:16;;;;;;;8.20;6.50;;;;;;;;;;5075081;28;20223;-54
2023/04/07 12:34:43;;;;;;;7.83;6.17;;;;;;;;;;5075071;28;20199;-55
2023/04/07 12:37:10;;;;;;;7.13;6.43;;;;;;;;;;5075282;28;20258;-54
2023/04/07 12:39:36;;;;;;;8.97;6.90;;;;;;;;;;5074994;28;20199;-54
2023/04/07 12:42:04;;;;;;;7.00;6.30;;;;;;;;;;5075174;28;20210;-54
2023/04/07 12:44:29;;;;;;;7.87;6.60;;;;;;;;;;5074857;28;20232;-54
2023/04/07 12:46:55;;;;;;;7.10;6.30;;;;;;;;;;5074408;28;20198;-55
2023/04/07 12:49:22;;;;;;;9.17;6.67;;;;;;;;;;5074635;28;20291;-54
2023/04/07 12:51:48;;;;;;;7.10;6.33;;;;;;;;;;5074794;28;20205;-55
2023/04/07 12:54:15;;;;;;;9.30;6.70;;;;;;;;;;5075034;28;20214;-54
2023/04/07 12:56:41;;;;;;;8.13;6.63;;;;;;;;;;5074593;28;20227;-54
2023/04/07 12:59:08;;;;;;;8.23;6.47;;;;;;;;;;5074390;28;20191;-55
2023/04/07 13:01:37;;;;;;;8.30;6.60;;;;;;;;;;5073630;28;20195;-54
2023/04/07 13:04:03;;;;;;;7.60;5.83;;;;;;;;;;5074578;28;20200;-54
2023/04/07 13:06:29;;;;;;;8.90;6.63;;;;;;;;;;5074582;28;20187;-55
2023/04/07 13:08:55;;;;;;;8.00;6.90;;;;;;;;;;5074478;28;20199;-55
2023/04/07 13:11:23;;;;;;;8.23;6.80;;;;;;;;;;5074492;28;20200;-54
2023/04/07 13:13:49;;;;;;;7.93;6.63;;;;;;;;;;5074239;28;20299;-55
2023/04/07 13:16:15;;;;;;;7.70;6.90;;;;;;;;;;5074411;28;20231;-54
2023/04/07 13:18:41;;;;;;;9.80;6.87;;;;;;;;;;5073929;28;20202;-56
2023/04/07 13:21:07;;;;;;;10.43;6.80;;;;;;;;;;5074083;28;20205;-54
2023/04/07 13:23:33;;;;;;;7.93;7.13;;;;;;;;;;5074017;28;20195;-56
2023/04/07 13:26:00;;;;;;;9.27;7.30;;;;;;;;;;5074329;28;20218;-54
2023/04/07 13:28:27;;;;;;;9.53;7.03;;;;;;;;;;5074205;28;20587;-54
2023/04/07 13:30:53;;;;;;;7.53;6.17;;;;;;;;;;5071962;28;20210;-55
2023/04/07 13:33:20;;;;;;;6.50;5.80;;;;;;;;;;5073975;28;20239;-54
2023/04/07 13:35:46;;;;;;;7.17;6.17;;;;;;;;;;5074053;28;20211;-54
2023/04/07 13:38:12;;;;;;;7.57;6.33;;;;;;;;;;5073402;28;20203;-55
2023/04/07 13:40:38;;;;;;;6.23;5.30;;;;;;;;;;5074054;28;20208;-55
2023/04/07 13:43:06;;;;;;;6.27;5.67;;;;;;;;;;5073974;28;20661;-54
2023/04/07 13:45:34;;;;;;;5.87;5.27;;;;;;;;;;5073931;28;20229;-56
2023/04/07 13:48:00;;;;;;;6.13;5.53;;;;;;;;;;5073996;28;20199;-55
2023/04/07 13:50:27;;;;;;;7.13;5.63;;;;;;;;;;5073974;28;20196;-54
2023/04/07 13:52:53;;;;;;;6.87;5.33;;;;;;;;;;5073668;28;20203;-54
2023/04/07 13:55:20;;;;;;;5.60;5.03;;;;;;;;;;5073627;28;20206;-54
2023/04/07 13:57:46;;;;;;;13.77;6.10;;;;;;;;;;5073532;28;20227;-55
2023/04/07 14:00:13;;;;;;;5.87;5.07;;;;;;;;;;5073709;28;20571;-55
2023/04/07 14:02:40;;;;;;;6.30;4.60;;;;;;;;;;5071504;28;20653;-55
2023/04/07 14:05:06;;;;;;;7.13;5.20;;;;;;;;;;5073701;28;20207;-55
2023/04/07 14:07:33;;;;;;;6.23;4.93;;;;;;;;;;5073518;28;20195;-54
2023/04/07 14:09:59;;;;;;;6.43;5.20;;;;;;;;;;5073711;28;20200;-54
2023/04/07 14:12:25;;;;;;;6.97;5.37;;;;;;;;;;5073448;28;20200;-55
2023/04/07 14:14:51;;;;;;;5.67;5.03;;;;;;;;;;5073188;28;20607;-54
2023/04/07 14:17:17;;;;;;;4.90;4.50;;;;;;;;;;5073091;28;20738;-56
2023/04/07 14:19:45;;;;;;;4.90;4.40;;;;;;;;;;5073293;28;20199;-55
2023/04/07 14:22:11;;;;;;;10.13;9.03;;;;;;;;;;5073298;28;20210;-54
2023/04/07 14:24:37;;;;;;;5.90;4.73;;;;;;;;;;5072646;28;20195;-54
2023/04/07 14:27:04;;;;;;;6.73;4.53;;;;;;;;;;5073224;28;20196;-55
2023/04/07 14:29:30;;;;;;;6.37;4.70;;;;;;;;;;5070259;28;20195;-55
2023/04/07 14:31:56;;;;;;;6.30;4.83;;;;;;;;;;5072402;28;20247;-54
2023/04/07 14:34:22;;;;;;;6.10;4.80;;;;;;;;;;5072935;28;20205;-55
2023/04/07 14:36:57;;;;;;;5.63;5.03;;;;;;;;;;5071952;28;20697;-55